createdAt,value
2023-01-06T07:02:17.432Z,2.30
2023-01-06T07:05:20.842Z,3.35
2023-01-06T07:08:27.896Z,5.12
2023-01-06T07:11:31.000Z,4.03
2023-01-06T07:14:36.804Z,5.22
2023-01-06T07:17:41.759Z,4.28
2023-01-06T07:20:49.764Z,3.62
2023-01-06T07:23:54.373Z,3.15
2023-01-06T07:26:57.085Z,1.60
2023-01-06T07:30:00.526Z,1.65
2023-01-06T07:33:04.352Z,1.87
2023-01-06T07:36:08.032Z,1.58
2023-01-06T07:39:11.049Z,2.22
2023-01-06T07:42:15.469Z,1.52
2023-01-06T07:45:18.237Z,1.33
2023-01-06T07:48:22.614Z,1.50
2023-01-06T07:51:25.360Z,1.50
2023-01-06T07:54:28.538Z,1.90
2023-01-06T07:57:32.822Z,1.80
2023-01-06T08:00:36.711Z,1.60
2023-01-06T08:03:40.548Z,1.90
2023-01-06T08:06:43.227Z,1.80
2023-01-06T08:09:49.667Z,1.98
2023-01-06T08:12:52.625Z,1.50
2023-01-06T08:15:55.719Z,1.80
2023-01-06T08:18:58.468Z,1.55
2023-01-06T08:22:01.999Z,1.70
2023-01-06T08:25:07.795Z,1.77
2023-01-06T08:28:13.790Z,1.62
2023-01-06T08:31:20.960Z,1.50
2023-01-06T08:34:24.337Z,1.80
2023-01-06T08:37:27.307Z,1.55
2023-01-06T08:40:34.276Z,2.03
2023-01-06T08:43:38.751Z,1.50
2023-01-06T08:46:41.960Z,1.45
2023-01-06T08:49:44.734Z,1.55
2023-01-06T08:52:52.080Z,1.50
2023-01-06T08:55:54.855Z,1.30
2023-01-06T08:59:01.057Z,1.60
2023-01-06T09:02:04.151Z,1.25
2023-01-06T09:05:08.372Z,1.70
2023-01-06T09:08:14.150Z,1.92
2023-01-06T09:11:17.804Z,2.08
2023-01-06T09:14:20.658Z,1.70
2023-01-06T09:17:23.848Z,2.20
2023-01-06T09:20:26.669Z,1.95
2023-01-06T09:23:31.141Z,2.30
2023-01-06T09:26:35.040Z,2.10
2023-01-06T09:29:38.465Z,2.33
2023-01-06T09:32:41.712Z,1.67
2023-01-06T09:35:46.183Z,2.00
2023-01-06T09:38:49.980Z,2.25
2023-01-06T09:41:56.737Z,2.00
2023-01-06T09:45:14.134Z,1.73
2023-01-06T09:48:29.731Z,1.50
2023-01-06T09:51:34.191Z,1.92
2023-01-06T09:54:42.586Z,2.33
2023-01-06T09:57:52.565Z,1.92
2023-01-06T10:00:56.983Z,2.33
2023-01-06T10:04:00.966Z,2.50
2023-01-06T10:07:29.344Z,2.17
2023-01-06T10:10:59.910Z,2.55
2023-01-06T10:14:11.378Z,2.65
2023-01-06T10:17:39.489Z,3.00
2023-01-06T10:20:50.724Z,2.47
2023-01-06T10:24:06.146Z,2.45
2023-01-06T10:27:21.981Z,2.28
2023-01-06T10:30:30.563Z,2.33
2023-01-06T10:33:39.399Z,2.78
2023-01-06T10:36:47.004Z,2.47
2023-01-06T10:40:00.155Z,3.12
2023-01-06T10:43:11.359Z,2.65
2023-01-06T10:46:16.322Z,2.10
2023-01-06T10:49:22.789Z,2.00
2023-01-06T10:52:31.105Z,2.67
2023-01-06T10:55:36.936Z,2.20
2023-01-06T10:58:55.330Z,2.75
2023-01-06T11:01:59.106Z,2.22
2023-01-06T11:05:02.310Z,1.87
2023-01-06T11:08:11.250Z,1.73
2023-01-06T11:11:29.290Z,1.98
2023-01-06T11:14:34.843Z,2.00
2023-01-06T11:17:40.091Z,1.98
2023-01-06T11:20:43.354Z,2.08
2023-01-06T11:23:48.091Z,1.80
2023-01-06T11:27:18.651Z,2.12
2023-01-06T11:30:48.458Z,2.42
2023-01-06T11:34:03.566Z,2.30
2023-01-06T11:37:09.294Z,1.70
2023-01-06T11:40:30.006Z,1.95
2023-01-06T11:43:36.566Z,1.80
2023-01-06T11:46:49.379Z,2.05
2023-01-06T11:49:57.955Z,2.20
2023-01-06T11:53:02.974Z,2.35
2023-01-06T11:56:14.783Z,2.42
2023-01-06T11:59:18.184Z,1.92
2023-01-06T12:02:30.596Z,2.00
2023-01-06T12:05:56.791Z,2.58
2023-01-06T12:08:59.387Z,1.98
2023-01-06T12:12:07.934Z,1.83
2023-01-06T12:15:15.844Z,2.15
2023-01-06T12:18:28.079Z,2.33
2023-01-06T12:21:33.295Z,2.00
2023-01-06T12:24:37.583Z,1.90
2023-01-06T12:27:46.070Z,2.50
2023-01-06T12:30:58.719Z,2.15
2023-01-06T12:34:04.909Z,2.92
2023-01-06T12:37:23.328Z,2.50
2023-01-06T12:40:39.886Z,2.12
2023-01-06T12:43:53.670Z,2.45
2023-01-06T12:47:07.124Z,2.03
2023-01-06T12:50:34.450Z,2.20
2023-01-06T12:54:01.582Z,2.58
2023-01-06T12:57:34.247Z,2.53
2023-01-06T13:01:02.587Z,1.98
2023-01-06T13:04:21.192Z,1.92
2023-01-06T13:07:30.079Z,2.72
2023-01-06T13:10:39.840Z,2.30
2023-01-06T13:14:06.027Z,2.75
2023-01-06T13:17:35.358Z,2.05
2023-01-06T13:20:50.093Z,2.60
2023-01-06T13:24:13.629Z,2.75
2023-01-06T13:27:22.444Z,3.55
2023-01-06T13:31:26.209Z,5.07
2023-01-06T13:35:02.084Z,2.50
2023-01-06T13:38:43.392Z,2.65
2023-01-06T13:41:51.504Z,2.85
2023-01-06T13:44:54.687Z,2.30
2023-01-06T13:48:00.690Z,1.60
2023-01-06T13:51:07.234Z,1.92
2023-01-06T13:54:41.217Z,1.90
2023-01-06T13:57:44.563Z,1.98
2023-01-06T14:01:08.911Z,2.00
2023-01-06T14:04:36.407Z,2.00
2023-01-06T14:07:41.191Z,1.85
2023-01-06T14:10:46.649Z,2.30
2023-01-06T14:13:53.189Z,1.92
2023-01-06T14:16:57.764Z,2.20
2023-01-06T14:20:00.609Z,2.20
2023-01-06T14:23:25.413Z,1.98
2023-01-06T14:27:08.283Z,1.95
2023-01-06T14:30:32.000Z,2.08
2023-01-06T14:33:39.600Z,2.22
2023-01-06T14:36:43.162Z,5.80
2023-01-06T14:39:49.947Z,4.85
2023-01-06T14:42:55.326Z,2.92
2023-01-06T14:46:04.616Z,2.58
2023-01-06T14:49:17.031Z,3.50
2023-01-06T14:52:31.640Z,2.83
2023-01-06T14:55:40.420Z,14.93
2023-01-06T14:58:43.269Z,7.97
2023-01-06T15:01:58.587Z,2.47
2023-01-06T15:05:06.212Z,2.95
2023-01-06T15:08:09.918Z,3.37
2023-01-06T15:11:18.556Z,3.20
2023-01-06T15:14:29.198Z,3.42
2023-01-06T15:20:40.652Z,2.40
2023-01-06T15:23:50.718Z,2.30
2023-01-06T15:27:03.361Z,2.45
2023-01-06T15:30:16.659Z,7.82
2023-01-06T15:33:28.328Z,6.47
2023-01-06T15:36:32.636Z,2.90
2023-01-06T15:39:38.700Z,2.42
2023-01-06T15:42:42.669Z,5.60
2023-01-06T15:45:56.836Z,14.80
2023-01-06T15:49:02.312Z,13.75
2023-01-06T15:52:23.100Z,5.22
2023-01-06T15:55:43.004Z,4.20
2023-01-06T15:58:49.708Z,3.65
2023-01-06T16:01:55.124Z,3.62
2023-01-06T16:05:02.893Z,3.50
2023-01-06T16:08:17.049Z,3.85
2023-01-06T16:11:48.544Z,3.70
2023-01-06T16:14:51.263Z,3.97
2023-01-06T16:17:54.294Z,4.30
2023-01-06T16:20:58.332Z,5.62
2023-01-06T16:24:04.728Z,6.12
2023-01-06T16:27:07.882Z,8.88
2023-01-06T16:30:24.100Z,17.20
2023-01-06T16:33:40.416Z,25.62
2023-01-06T16:36:50.606Z,22.40
2023-01-06T16:39:59.934Z,18.50
2023-01-06T16:43:03.640Z,16.10
2023-01-06T16:46:15.335Z,11.40
2023-01-06T16:49:18.567Z,10.00
2023-01-06T16:52:21.563Z,7.55
2023-01-06T16:55:24.823Z,8.77
2023-01-06T16:58:30.040Z,7.37
2023-01-06T17:01:35.592Z,6.75
2023-01-06T17:04:41.411Z,6.50
2023-01-06T17:07:45.686Z,6.12
2023-01-06T17:10:49.048Z,6.05
2023-01-06T17:14:00.979Z,6.30
2023-01-06T17:17:19.802Z,21.77
2023-01-06T17:20:25.696Z,15.63
2023-01-06T17:23:42.914Z,12.50
2023-01-06T17:27:22.761Z,7.20
2023-01-06T17:30:29.568Z,7.12
2023-01-06T17:33:56.252Z,8.13
2023-01-06T17:37:03.147Z,15.50
2023-01-06T17:40:16.949Z,14.07
2023-01-06T17:43:38.301Z,11.12
2023-01-06T17:47:35.678Z,13.93
2023-01-06T17:50:53.989Z,14.07
2023-01-06T17:55:12.946Z,18.10
2023-01-06T17:58:49.855Z,19.45
2023-01-06T18:01:53.439Z,19.62
2023-01-06T18:05:25.551Z,29.20
2023-01-06T18:08:32.338Z,35.33
2023-01-06T18:11:48.848Z,23.05
2023-01-06T18:14:51.612Z,23.30
2023-01-06T18:17:56.563Z,23.25
2023-01-06T18:21:39.308Z,23.75
2023-01-06T18:25:24.836Z,20.50
2023-01-06T18:29:19.514Z,20.62
2023-01-06T18:33:13.542Z,19.25
2023-01-06T18:36:17.460Z,22.00
2023-01-06T18:39:27.388Z,21.17
2023-01-06T18:42:31.910Z,20.95
2023-01-06T18:46:01.716Z,21.30
2023-01-06T18:49:45.223Z,22.23
2023-01-06T18:53:14.013Z,23.05
2023-01-06T18:56:21.089Z,21.70
2023-01-06T19:00:31.462Z,21.95
2023-01-06T19:04:05.949Z,18.92
2023-01-06T19:07:32.126Z,18.33
2023-01-06T19:11:19.283Z,16.48
2023-01-06T19:14:54.135Z,15.77
2023-01-06T19:17:57.368Z,18.25
2023-01-06T19:21:23.421Z,17.65
2023-01-06T19:24:26.921Z,18.75
2023-01-06T19:27:57.820Z,18.50
2023-01-06T19:31:05.366Z,18.48
2023-01-06T19:34:16.081Z,18.55
2023-01-06T19:37:19.151Z,20.37
2023-01-06T19:40:30.871Z,20.05
2023-01-06T19:43:35.967Z,21.23
2023-01-06T19:46:41.417Z,20.88
2023-01-06T19:49:49.909Z,20.88
2023-01-06T19:52:59.049Z,20.33
2023-01-06T19:56:14.927Z,18.62
2023-01-06T19:59:47.273Z,19.98
2023-01-06T20:02:52.602Z,17.95
2023-01-06T20:05:56.046Z,18.27
2023-01-06T20:08:58.782Z,19.48
2023-01-06T20:12:02.315Z,17.62
2023-01-06T20:15:06.864Z,13.52
2023-01-06T20:18:10.348Z,11.82
2023-01-06T20:21:13.156Z,11.35
2023-01-06T20:24:17.237Z,10.98
2023-01-06T20:27:20.623Z,10.25
2023-01-06T20:30:23.838Z,10.07
2023-01-06T20:33:26.610Z,8.60
2023-01-06T20:36:29.849Z,10.43
2023-01-06T20:39:35.192Z,13.23
2023-01-06T20:42:38.276Z,14.65
2023-01-06T20:45:41.499Z,13.75
2023-01-06T20:48:44.787Z,13.88
2023-01-06T20:51:48.188Z,14.55
2023-01-06T20:54:51.240Z,14.15
2023-01-06T20:57:55.114Z,14.80
2023-01-06T21:00:58.333Z,14.43
2023-01-06T21:04:01.024Z,13.32
2023-01-06T21:07:04.170Z,13.13
2023-01-06T21:10:07.572Z,13.80
2023-01-06T21:13:10.668Z,11.95
2023-01-06T21:16:13.642Z,13.13
2023-01-06T21:19:17.011Z,12.07
2023-01-06T21:22:19.994Z,12.30
2023-01-06T21:25:24.822Z,12.10
2023-01-06T21:28:27.681Z,11.88
2023-01-06T21:31:30.783Z,11.60
2023-01-06T21:34:33.491Z,11.70
2023-01-06T21:37:36.687Z,13.57
2023-01-06T21:40:39.519Z,13.52
2023-01-06T21:43:45.707Z,12.57
2023-01-06T21:46:48.468Z,13.18
2023-01-06T21:49:52.751Z,13.77
2023-01-06T21:52:57.655Z,12.35
2023-01-06T21:56:01.502Z,11.80
2023-01-06T21:59:05.144Z,12.27
2023-01-06T22:02:09.997Z,13.40
2023-01-06T22:05:14.557Z,14.40
2023-01-06T22:08:17.993Z,16.52
2023-01-06T22:11:21.135Z,12.32
2023-01-06T22:14:25.615Z,13.32
2023-01-06T22:17:29.071Z,12.68
2023-01-06T22:20:32.510Z,12.32
2023-01-06T22:23:36.823Z,13.43
2023-01-06T22:26:39.615Z,13.35
2023-01-06T22:29:42.511Z,12.23
2023-01-06T22:32:48.500Z,11.85
2023-01-06T22:35:51.689Z,12.73
2023-01-06T22:38:54.588Z,14.48
2023-01-06T22:41:57.664Z,22.08
2023-01-06T22:45:00.591Z,23.90
2023-01-06T22:48:04.793Z,16.80
2023-01-06T22:51:07.519Z,16.25
2023-01-06T22:54:12.134Z,12.80
2023-01-06T22:57:17.602Z,10.85
2023-01-06T23:00:21.168Z,9.95
2023-01-06T23:03:24.413Z,10.15
2023-01-06T23:06:31.081Z,10.10
2023-01-06T23:09:33.756Z,11.10
2023-01-06T23:12:39.535Z,10.40
2023-01-06T23:15:46.017Z,9.75
2023-01-06T23:18:50.450Z,9.95
2023-01-06T23:21:55.991Z,10.05
2023-01-06T23:24:59.035Z,10.25
2023-01-06T23:28:02.319Z,10.52
2023-01-06T23:31:10.967Z,10.88
2023-01-06T23:34:18.444Z,9.73
2023-01-06T23:37:21.507Z,8.85
2023-01-06T23:40:24.236Z,10.23
2023-01-06T23:43:28.251Z,9.35
2023-01-06T23:46:40.425Z,11.27
2023-01-06T23:49:43.523Z,11.20
2023-01-06T23:52:46.363Z,11.20
2023-01-06T23:56:13.697Z,12.50
2023-01-06T23:59:16.505Z,10.93
